Tiempo atmosférico en la estación meteorológica de Melilla, Melilla (47 m.)



Fecha
DESCASC
Temp. máxima en grados centígrados (hora)
DESCASC
Temp. mínima en grados centígrados (hora)
DESCASC
Temp. media en grados centígrados
DESCASC
Racha de viento máxima en m/sg (hora)
DESCASC
Velocidad máxima media en intervalos de 10 minutos(hora)
DESCASC
Precipitaciones diarias en mm
DESCASC
Precipitaciones de 00:00 a 06:00 en mm
DESCASC
Precipitaciones de 06:00 a 12:00 en mm
DESCASC
Precipitaciones de 12:00 a 18:00 en mm
DESCASC
Precipitaciones de 18:00 a 24:00 en mm
DESCASC
14-12-2019 17.8 (11:40) 14.2 (23:30) 16 16.67 (00:10) 9.44 (00:10) 0 0 0 0 0
13-12-2019 18.1 (13:00) 15.6 (00:10) 16.9 25.28 (07:50) 12.5 (07:20) 0 0 0 0 0
12-12-2019 16.3 (15:00) 13.9 (07:00) 15.1 19.17 (23:59) 11.67 (23:50) 0 0 0 0 0
11-12-2019 19.8 (12:30) 12 (00:00) 15.9 15 (16:10) 7.5 (22:50) 0 0 0 0 0
10-12-2019 20.3 (13:40) 11.6 (00:00) 15.9 6.94 (00:50) 4.17 (01:10) 0 0 0 0 0
09-12-2019 19.7 (13:20) 13.9 (00:00) 16.8 12.22 (12:40) 6.67 (12:40) 0 0 0 0 0
08-12-2019 17.8 (14:40) 10.9 (00:00) 14.3 8.89 (23:40) 5.28 (23:40) 0 0 0 0 0
07-12-2019 16.8 (12:00) 12.8 (00:00) 14.8 9.17 (00:50) 5.83 (03:10) 0 0 0 0 0
06-12-2019 18.2 (13:10) 15.4 (00:00) 16.8 11.11 (03:50) 5.83 (07:00) 0 0 0 0 0
05-12-2019 16.7 (12:10) 12 (00:00) 14.4 7.5 (15:10) 5.56 (14:50) 0 0 0 0 0
04-12-2019 17.4 (12:10) 12.7 (00:00) 15 10.28 (13:10) 5.83 (06:50) 5.4 0 0 5.4 0
03-12-2019 -- (--) -- (--) -- 15.56 (21:40) 10 (21:40) 20 1.6 6.4 8.2 3.8
02-12-2019 16.8 (14:00) 12.3 (00:00) 14.5 8.89 (18:10) 5.56 (17:50) 3.4 0 0.2 0 3.2
01-12-2019 20.6 (11:30) 13.9 (00:00) 17.3 9.17 (02:00) 5.83 (02:00) 1 0 0 0 1
30-11-2019 20.2 (15:20) 11.9 (00:00) 16.1 9.17 (23:59) 5.28 (23:50) 0 0 0 0 0
29-11-2019 21.1 (14:50) 13.4 (00:00) 17.3 7.5 (03:00) 4.72 (02:00) 0 0 0 0 0
28-11-2019 21.1 (13:00) 15.8 (00:00) 18.5 6.67 (12:30) 3.89 (21:40) 0 0 0 0 0
27-11-2019 21.2 (11:20) 14.6 (00:00) 17.9 10.28 (19:10) 6.11 (19:10) 0 0 0 0 0
26-11-2019 23.4 (14:30) 16.8 (00:00) 20.1 9.72 (17:50) 5.83 (18:10) 0 0 0 0 0
25-11-2019 20.8 (12:50) 14.2 (00:00) 17.5 12.78 (13:40) 6.94 (13:30) 0 0 0 0 0
24-11-2019 18 (15:10) 14.6 (00:00) 16.3 15.28 (05:20) 7.5 (06:20) 0 0 0 0 0
23-11-2019 20.7 (00:00) 15 (00:00) 17.9 16.67 (13:00) 8.89 (13:50) 8.8 8.8 0 0 0
22-11-2019 22.1 (16:30) 13.2 (00:00) 17.7 15 (14:40) 9.44 (14:50) 0.4 0 0 0.4 0
21-11-2019 19.7 (15:30) 12.5 (00:00) 16.1 6.67 (21:00) 3.89 (21:00) 0.6 0 0.2 0 0.4
20-11-2019 18.4 (13:20) 9.3 (00:00) 13.8 5.83 (20:20) 4.17 (20:20) 0 0 0 0 0
19-11-2019 17.3 (12:10) 10.2 (00:00) 13.7 8.89 (00:10) 4.44 (12:30) 0 0 0 0 0
18-11-2019 17.2 (05:20) 12 (00:00) 14.6 15 (14:00) 8.33 (10:50) 8.6 0 8.6 0 0
17-11-2019 18.4 (13:30) 11.7 (00:00) 15 9.72 (00:10) 5.28 (12:40) 0 0 0 0 0
16-11-2019 15.1 (12:50) 7 (00:00) 11.1 13.89 (10:20) 6.67 (01:10) 31.2 31.2 0 0 0

Gráficas

Temp. máximas Temp. mínimas Temp. medias Precipitaciones Rachas de viento máximas Velocidades máximas media en intervalos de 10 minutos

Datos horarios

Fecha y hora oficial Temperatura (ºC) Velocidad del viento (km/h) Dirección del viento Racha (km/h) Dirección de racha Precipitación (mm) Presión (hPa) Tendencia (hPa) Humedad (%)
2019-12-15 23:00:00 12.3 0 Calma 5 Norte 0 1006.3 -1.5 81
2019-12-15 22:00:00 12.8 2 Oeste 8 Noroeste 0 1006.9 -0.8 79
2019-12-15 21:00:00 13.4 5 Norte 8 Norte 0 1007.4 -0.7 79
2019-12-15 20:00:00 14.1 4 Sudoeste 10 Oeste 0 1007.8 -0.4 72
2019-12-15 19:00:00 14.7 6 Sudoeste 12 Oeste 0 1007.7 -0.8 73
2019-12-15 18:00:00 15.6 5 Oeste 12 Oeste 0 1008.1 -0.9 73
2019-12-15 17:00:00 16.9 5 Oeste 16 Oeste 0 1008.2 -1.4 67
2019-12-15 16:00:00 17.3 9 Noroeste 17 Noroeste 0 1008.5 -2.2 63
2019-12-15 15:00:00 18 9 Oeste 19 Oeste 0 1009 -2.7 62
2019-12-15 14:00:00 18.2 8 Oeste 18 Noroeste 0 1009.6 -2.5 61
2019-12-15 13:00:00 17.7 8 Oeste 26 Oeste 0 1010.7 -1.2 62
2019-12-15 12:00:00 17.9 9 Oeste 25 Sudoeste 0 1011.7 0.2 63
2019-12-15 11:00:00 17.1 14 Sudoeste 23 Oeste 0 1012.1 0.9 70
2019-12-15 10:00:00 15.9 15 Sudoeste 22 Sudoeste 0 1011.9 0.8 74
2019-12-15 09:00:00 14.4 12 Oeste 19 Sudoeste 0 1011.5 0.7 78
2019-12-15 08:00:00 13.6 11 Sudoeste 17 Sudoeste 0 1011.2 0.2 78
2019-12-15 07:00:00 13.4 10 Sudoeste 17 Sudoeste 0 1011.1 -0.6 85
2019-12-15 06:00:00 12.9 9 Oeste 14 Oeste 0 1010.8 -1.3 86
2019-12-15 05:00:00 12.8 8 Sudoeste 15 Sudoeste 0 1011 -1.3 86
2019-12-15 04:00:00 13.5 10 Sudoeste 15 Oeste 0 1011.7 -1 83
2019-12-15 03:00:00 13.7 11 Sudoeste 19 Sudoeste 0 1012.1 -1 83
2019-12-15 02:00:00 14.1 14 Sudoeste 23 Oeste 0 1012.3 -0.8 82
2019-12-15 01:00:00 14.1 15 Sudoeste 24 Sudoeste 0 1012.7 -0.6 81
2019-12-15 00:00:00 14.2 15 Sudoeste 26 Sudoeste 0 1013.1 -0.2 81
2019-12-14 23:00:00 14.4 13 Oeste 25 Sudoeste 0 1013.1 -0.1 79
2019-12-14 22:00:00 14.4 17 Oeste 28 Oeste 0 1013.3 0.1 79
2019-12-14 21:00:00 14.5 16 Sudoeste 31 Oeste 0 1013.3 0.1 79
2019-12-14 20:00:00 14.8 17 Oeste 31 Sudoeste 0 1013.2 0.4 81
2019-12-14 19:00:00 15 20 Oeste 31 Oeste 0 1013.2 0.4 79
2019-12-14 18:00:00 15.5 15 Oeste 30 Oeste 0 1013.2 0.3 77
2019-12-14 17:00:00 16.1 11 Oeste 32 Oeste 0 1012.8 -0.7 76
2019-12-14 16:00:00 16.6 14 Oeste 28 Oeste 0 1012.8 -1.5 74
2019-12-14 15:00:00 17.1 12 Oeste 31 Sudoeste 0 1012.9 -1.8 71
2019-12-14 14:00:00 17 12 Oeste 33 Oeste 0 1013.5 -1.5 71
2019-12-14 13:00:00 16.7 15 Oeste 41 Oeste 0 1014.3 -0.4 73
2019-12-14 12:00:00 17.2 19 Oeste 48 Oeste 0 1014.7 0.5 72
2019-12-14 11:00:00 17.4 15 Oeste 45 Oeste 0 1015 1.1 71
2019-12-14 10:00:00 16.4 18 Oeste 39 Oeste 0 1014.7 1.3 75
2019-12-14 09:00:00 15.6 18 Oeste 33 Oeste 0 1014.2 1.1 75
2019-12-14 08:00:00 15 10 Sudoeste 33 Oeste 0 1013.9 0.8 78
2019-12-14 07:00:00 15.4 18 Oeste 42 Oeste 0 1013.4 -0.1 71
2019-12-14 06:00:00 15.5 21 Oeste 49 Oeste 0 1013.1 -0.6 70
2019-12-14 05:00:00 15.6 25 Oeste 48 Oeste 0 1013.1 -0.6 71
2019-12-14 04:00:00 15.8 27 Oeste 60 Oeste 0 1013.5 -0.7 70
2019-12-14 03:00:00 15.9 27 Oeste 53 Oeste 0 1013.7 -0.4 71
2019-12-14 02:00:00 15.9 23 Oeste 45 Oeste 0 1013.7 -0.2 70
2019-12-14 01:00:00 16.1 23 Oeste 60 Oeste 0 1014.2 0.8 71
2019-12-14 00:00:00 15.9 29 Oeste 53 Oeste 0 1014.1 0.8 73
2019-12-13 23:00:00 16 27 Oeste 69 Oeste 0 1013.9 0.4 74
2019-12-13 22:00:00 16.1 33 Oeste 67 Oeste 0 1013.4 0.2 77
2019-12-13 21:00:00 16 38 Oeste 69 Oeste 0 1013.3 -0.2 80
2019-12-13 20:00:00 16.2 39 Oeste 69 Oeste 0 1013.5 0.5 81
2019-12-13 19:00:00 16.4 38 Oeste 71 Oeste 0 1013.2 -0.3 78
2019-12-13 18:00:00 16.6 36 Oeste 76 Oeste 0 1013.5 0.6 77
2019-12-13 17:00:00 16.8 41 Oeste 74 Oeste 0 1013 0 76
2019-12-13 16:00:00 17.5 28 Oeste 64 Oeste 0 1013.5 -0.4 75
2019-12-13 15:00:00 17.5 23 Oeste 63 Oeste 0 1012.9 -1.7 77
2019-12-13 14:00:00 17.5 21 Oeste 64 Sudoeste 0 1013 -1.6 76
2019-12-13 13:00:00 18 20 Oeste 55 Sudoeste 0 1013.9 -0.2 74
2019-12-13 12:00:00 17.5 24 Oeste 64 Oeste 0 1014.6 1.7 75
2019-12-13 11:00:00 17.6 27 Oeste 66 Oeste 0 1014.6 2.2 69
2019-12-13 10:00:00 17.5 32 Oeste 71 Oeste 0 1014.1 2.2 64
2019-12-13 09:00:00 16.9 32 Oeste 70 Oeste 0 1012.9 0.6 66
2019-12-13 08:00:00 16.6 39 Oeste 91 Oeste 0 1012.4 0.1 67
2019-12-13 07:00:00 16.4 42 Oeste 80 Oeste 0 1011.9 -2.5 69
2019-12-13 06:00:00 16.3 43 Oeste 73 Oeste 0 1012.3 -1.2 62
2019-12-13 05:00:00 16.2 29 Oeste 64 Oeste 0 1012.3 -1.5 62
2019-12-13 04:00:00 16.1 31 Oeste 67 Oeste 0 1014.4 0.5 57
2019-12-13 03:00:00 15.9 37 Oeste 75 Oeste 0 1013.5 -0.5 57
2019-12-13 02:00:00 16 36 Oeste 78 Oeste 0 1013.8 -1.6 54
2019-12-13 01:00:00 15.7 31 Oeste 72 Oeste 0 1013.9 -1.8 56
2019-12-13 00:00:00 15.7 42 Oeste 69 Sudoeste 0 1014 -2.8 56
2019-12-12 23:00:00 15.1 27 Oeste 59 Oeste 0 1015.4 -1.6 60
2019-12-12 22:00:00 15.1 22 Oeste 52 Oeste 0 1015.7 -0.5 59
2019-12-12 21:00:00 15.1 17 Oeste 49 Noroeste 0 1016.8 0.2 57
2019-12-12 20:00:00 14.8 19 Oeste 48 Oeste 0 1017 0 63
2019-12-12 19:00:00 14.8 26 Oeste 54 Oeste 0 1016.2 -0.7 64
2019-12-12 18:00:00 14.7 22 Oeste 52 Oeste 0 1016.6 -0.1 63
2019-12-12 17:00:00 14.9 26 Oeste 53 Oeste 0 1017 0.6 65
2019-12-12 16:00:00 15.2 25 Oeste 55 Oeste 0 1016.9 -0.8 60
2019-12-12 15:00:00 16.2 21 Oeste 63 Oeste 0 1016.7 -0.8 56
2019-12-12 14:00:00 15.7 33 Oeste 65 Oeste 0 1016.4 -1.8 57
2019-12-12 13:00:00 14.8 23 Oeste 60 Oeste 0 1017.7 -0.6 57
2019-12-12 12:00:00 15.2 36 Oeste 59 Oeste 0 1017.5 -0.1 56
2019-12-12 11:00:00 14.9 26 Oeste 52 Oeste 0 1018.2 0.6 65
2019-12-12 10:00:00 14.6 27 Oeste 48 Oeste 0 1018.3 0.7 67
2019-12-12 09:00:00 14.2 24 Oeste 48 Oeste 0 1017.6 0 70
2019-12-12 08:00:00 14 25 Oeste 44 Oeste 0 1017.6 0 67
2019-12-12 07:00:00 14 16 Oeste 42 Oeste 0 1017.6 -0.2 73
2019-12-12 06:00:00 14.4 10 Oeste 36 Oeste 0 1017.6 -0.5 77
2019-12-12 05:00:00 14.4 13 Oeste 29 Oeste 0 1017.6 -0.6 79
2019-12-12 04:00:00 14.6 15 Oeste 32 Oeste 0 1017.8 -0.9 76
2019-12-12 03:00:00 14.7 15 Oeste 40 Oeste 0 1018.1 0.2 81
2019-12-12 02:00:00 15.1 18 Oeste 44 Oeste 0 1018.2 0.8 80
2019-12-12 01:00:00 15.5 14 Oeste 48 Oeste 0 1018.7 1.5 80
2019-12-12 00:00:00 15.5 20 Oeste 47 Oeste 0 1017.9 0.7 82
2019-12-11 23:00:00 15.8 24 Oeste 53 Oeste 0 1017.4 0.6 80
2019-12-11 22:00:00 16 20 Oeste 52 Oeste 0 1017.2 0.4 78
2019-12-11 21:00:00 16.4 20 Oeste 48 Oeste 0 1017.2 0.7 72
2019-12-11 20:00:00 16.5 19 Oeste 46 Oeste 0 1016.8 0.5 71
2019-12-11 19:00:00 16.5 22 Oeste 43 Oeste 0 1016.8 0.3 67
2019-12-11 18:00:00 16.7 16 Oeste 45 Oeste 0 1016.5 -0.2 67
2019-12-11 17:00:00 17.6 23 Oeste 54 Oeste 0 1016.3 -0.6 63
2019-12-11 16:00:00 18 23 Oeste 47 Oeste 0 1016.5 -0.8 63
2019-12-11 15:00:00 18.9 22 Oeste 46 Oeste 0 1016.7 -1 57
2019-12-11 14:00:00 19.1 24 Oeste 44 Oeste 0 1016.9 -0.9 50
2019-12-11 13:00:00 19.6 23 Oeste 46 Oeste 0 1017.3 -0.2 42
2019-12-11 12:00:00 19.1 22 Oeste 39 Oeste 0 1017.7 0.4 54
2019-12-11 11:00:00 18 17 Oeste 35 Oeste 0 1017.8 0.6 60
2019-12-11 10:00:00 17.2 12 Oeste 30 Oeste 0 1017.5 0.6 46
2019-12-11 09:00:00 15.9 15 Oeste 28 Oeste 0 1017.3 0.7 51
2019-12-11 08:00:00 15 14 Oeste 24 Oeste 0 1017.2 0.3 61
2019-12-11 07:00:00 14.6 13 Oeste 24 Oeste 0 1016.9 -0.3 72
2019-12-11 06:00:00 14.1 8 Oeste 19 Oeste 0 1016.6 -0.6 78
2019-12-11 05:00:00 13.1 5 Noroeste 11 Oeste 0 1016.9 -0.7 80
2019-12-11 04:00:00 12.5 2 Sur 11 Sudoeste 0 1017.2 -1.2 82
2019-12-11 03:00:00 12.4 6 Sudoeste 10 Sudoeste 0 1017.2 -1.6 84
2019-12-11 02:00:00 12.4 4 Sudeste 6 Sudeste 0 1017.6 -1 90
2019-12-11 01:00:00 12.3 3 Noroeste 7 Norte 0 1018.4 -0.3 92
2019-12-11 00:00:00 12.3 3 Oeste 9 Sudoeste 0 1018.8 -0.3 92
2019-12-10 23:00:00 12.8 5 Sudoeste 6 Sudoeste 0 1018.6 -0.6 92
2019-12-10 22:00:00 13.6 4 Oeste 8 Noroeste 0 1018.7 -0.1 92
2019-12-10 21:00:00 13.7 5 Sudoeste 10 Sudoeste 0 1019.1 0.4 89
2019-12-10 20:00:00 14.5 5 Oeste 17 Oeste 0 1019.2 0.6 90
2019-12-10 19:00:00 15.1 8 Oeste 14 Oeste 0 1018.8 0.2 88
2019-12-10 18:00:00 16 4 Oeste 14 Noroeste 0 1018.7 0.2 84
2019-12-10 17:00:00 17.9 5 Oeste 13 Oeste 0 1018.6 -0.7 70
2019-12-10 16:00:00 18.9 7 Oeste 15 Noroeste 0 1018.6 -1.6 69
2019-12-10 15:00:00 19.1 7 Noroeste 18 Norte 0 1018.5 -2.4 67
2019-12-10 14:00:00 19.4 6 Noroeste 13 Norte 0 1019.3 -2.1 64
2019-12-10 13:00:00 19.3 5 Este 14 Este 0 1020.2 -1.1 67
2019-12-10 12:00:00 19 6 Este 12 Sudeste 0 1020.9 0.1 67
2019-12-10 11:00:00 18.6 4 Oeste 13 Oeste 0 1021.4 0.7 66
2019-12-10 10:00:00 15.2 3 Noroeste 10 Norte 0 1021.3 1 82
2019-12-10 09:00:00 12.3 4 Noroeste 9 Sudoeste 0 1020.8 0.8 90
2019-12-10 08:00:00 12.3 4 Oeste 12 Norte 0 1020.7 0.5 88
2019-12-10 07:00:00 12.4 3 Noroeste 12 Sudoeste 0 1020.3 -0.3 89
2019-12-10 06:00:00 13.4 5 Noroeste 11 Noroeste 0 1020 -0.7 85
2019-12-10 05:00:00 14.5 4 Sur 16 Sudoeste 0 1020.2 -0.5 84
2019-12-10 04:00:00 15.4 9 Sudoeste 17 Oeste 0 1020.6 -0.5 79
2019-12-10 03:00:00 16.2 9 Oeste 21 Oeste 0 1020.7 -1.1 75
2019-12-10 02:00:00 16.1 10 Oeste 25 Oeste 0 1020.7 -0.9 76
2019-12-10 01:00:00 15.9 14 Sudoeste 25 Sudoeste 0 1021.1 -0.7 82
2019-12-10 00:00:00 15.9 13 Sudoeste 21 Sudoeste 0 1021.8 0.3 82
2019-12-09 23:00:00 15.7 12 Sudoeste 19 Sudoeste 0 1021.6 0.6 82
2019-12-09 22:00:00 15.9 11 Sudoeste 17 Sudoeste 0 1021.8 1.2 81
2019-12-09 21:00:00 16 9 Oeste 22 Oeste 0 1021.5 1 80
2019-12-09 20:00:00 16.2 12 Sudoeste 22 Oeste 0 1021 0.6 78
2019-12-09 19:00:00 16.4 14 Sudoeste 23 Sudoeste 0 1020.6 0.4 77
2019-12-09 18:00:00 16.9 12 Sudoeste 28 Oeste 0 1020.5 0.1 76
2019-12-09 17:00:00 17.6 18 Oeste 35 Oeste 0 1020.4 -0.6 72
2019-12-09 16:00:00 17.7 20 Oeste 41 Oeste 0 1020.2 -1.4 72
2019-12-09 15:00:00 18.9 18 Oeste 40 Oeste 0 1020.4 -1.5 68
2019-12-09 14:00:00 19.2 23 Oeste 42 Noroeste 0 1021 -1.1 66
2019-12-09 13:00:00 19.4 18 Oeste 44 Oeste 0 1021.6 0.6 64
2019-12-09 12:00:00 19.2 17 Oeste 39 Oeste 0 1021.9 1.6 63
2019-12-09 11:00:00 18.8 17 Oeste 36 Oeste 0 1022.1 1.8 61
2019-12-09 10:00:00 17.5 19 Oeste 43 Sudoeste 0 1021 1.4 65
2019-12-09 09:00:00 16.2 22 Oeste 36 Oeste 0 1020.3 1.2 72
2019-12-09 08:00:00 15.2 15 Oeste 32 Oeste 0 1020.3 1.2 74
2019-12-09 07:00:00 15.1 15 Oeste 35 Oeste 0 1019.6 -0.1 73
2019-12-09 06:00:00 14.8 14 Oeste 32 Oeste 0 1019.1 -0.4 73
2019-12-09 05:00:00 15.1 17 Oeste 34 Oeste 0 1019.1 0 77
2019-12-09 04:00:00 14.6 12 Oeste 24 Sudoeste 0 1019.7 0.4 77
2019-12-09 03:00:00 14 4 Oeste 17 Oeste 0 1019.5 -0.2 71
2019-12-09 02:00:00 15.5 11 Oeste 32 Oeste 0 1019.1 -0.6 63
2019-12-09 01:00:00 15.8 15 Oeste 27 Sudoeste 0 1019.3 -0.4 61
2019-12-09 00:00:00 15.8 17 Sudoeste 32 Oeste 0 1019.7 0 62
2019-12-08 23:00:00 15.8 15 Oeste 24 Oeste 0 1019.7 0.3 63
2019-12-08 22:00:00 15.8 13 Oeste 21 Sudoeste 0 1019.7 0.6 59
2019-12-08 21:00:00 15.6 9 Oeste 22 Oeste 0 1019.7 1.1 63
2019-12-08 20:00:00 15 6 Oeste 17 Sudoeste 0 1019.4 0.9 67
2019-12-08 19:00:00 15.1 6 Oeste 20 Sudoeste 0 1019.1 0.5 72
2019-12-08 18:00:00 16 12 Oeste 20 Oeste 0 1018.6 -0.1 71
2019-12-08 17:00:00 17.6 11 Oeste 21 Oeste 0 1018.5 -0.6 68
2019-12-08 16:00:00 17.7 8 Oeste 18 Oeste 0 1018.6 -1.2 72
2019-12-08 15:00:00 17.4 9 Noroeste 17 Noroeste 0 1018.7 -1.7 73
2019-12-08 14:00:00 17.4 6 Noroeste 18 Noroeste 0 1019.1 -1.5 73
2019-12-08 13:00:00 17.4 7 Noroeste 17 Noroeste 0 1019.8 -0.4 72
2019-12-08 12:00:00 17.1 7 Noroeste 15 Noroeste 0 1020.4 0.8 70
2019-12-08 11:00:00 16.3 3 Noroeste 7 Oeste 0 1020.6 1.5 75
2019-12-08 10:00:00 13.4 0 Calma 7 Sudoeste 0 1020.2 1.5 86
2019-12-08 09:00:00 11.9 5 Oeste 10 Sudoeste 0 1019.6 1.3 86
2019-12-08 08:00:00 11.1 6 Oeste 9 Sudoeste 0 1019.1 0.7 87
2019-12-08 07:00:00 11.2 3 Oeste 9 Noroeste 0 1018.7 0 89
2019-12-08 06:00:00 11.3 3 Oeste 6 Oeste 0 1018.3 -0.5 89
2019-12-08 05:00:00 11.4 3 Oeste 10 Oeste 0 1018.4 -0.5 90
2019-12-08 04:00:00 11.5 3 Oeste 7 Oeste 0 1018.7 -0.2 92
2019-12-08 03:00:00 11.8 5 Oeste 9 Sudoeste 0 1018.8 -0.4 90
2019-12-08 02:00:00 11.9 6 Oeste 9 Sudoeste 0 1018.9 0 93
2019-12-08 01:00:00 12.5 5 Oeste 8 Sudoeste 0 1018.9 0.3 93
2019-12-08 00:00:00 12.8 4 Oeste 10 Sudoeste 0 1019.2 0.8 91
2019-12-07 23:00:00 13.3 4 Noroeste 9 Sudoeste 0 1018.9 1 93
2019-12-07 22:00:00 14.2 5 Sudoeste 6 Sudoeste 0 1018.6 1.5 92
2019-12-07 21:00:00 14.8 3 Oeste 5 Sudoeste 0 1018.4 1.7 91
2019-12-07 20:00:00 15 4 Oeste 9 Nordeste 0 1017.9 1.7 90
2019-12-07 19:00:00 15.5 8 Nordeste 13 Nordeste 0 1017.1 1.4 88
2019-12-07 18:00:00 15.7 8 Nordeste 15 Nordeste 0 1016.7 1.3 86
2019-12-07 17:00:00 16 12 Nordeste 20 Nordeste 0 1016.2 0.7 85
2019-12-07 16:00:00 16.2 15 Norte 24 Norte 0 1015.7 -0.3 82
2019-12-07 15:00:00 16.2 15 Norte 26 Norte 0 1015.4 -1 84
2019-12-07 14:00:00 16.5 19 Nordeste 27 Nordeste 0 1015.5 -0.9 84
2019-12-07 13:00:00 16.5 18 Nordeste 24 Nordeste 0 1016 0.2 86
2019-12-07 12:00:00 16.6 16 Nordeste 23 Nordeste 0 1016.4 1 84
2019-12-07 11:00:00 16.7 13 Nordeste 21 Nordeste 0 1016.4 1.6 85
2019-12-07 10:00:00 16 14 Nordeste 24 Nordeste 0 1015.8 1.6 87
2019-12-07 09:00:00 15.9 14 Nordeste 24 Nordeste 0 1015.4 1.6 88
2019-12-07 08:00:00 15.5 12 Nordeste 23 Nordeste 0 1014.8 1.1 89
2019-12-07 07:00:00 15.7 16 Nordeste 28 Nordeste 0 1014.2 0.8 88
2019-12-07 06:00:00 15.7 16 Nordeste 27 Nordeste 0 1013.8 0.4 89
2019-12-07 05:00:00 15.8 17 Nordeste 26 Nordeste 0 1013.7 0.3 89
2019-12-07 04:00:00 15.9 19 Nordeste 28 Nordeste 0 1013.4 -0.2 88
2019-12-07 03:00:00 15.7 15 Nordeste 28 Nordeste 0 1013.4 -0.3 88
2019-12-07 02:00:00 15.9 17 Nordeste 33 Nordeste 0 1013.4 -0.2 89
2019-12-07 01:00:00 15.9 16 Este 33 Este 0 1013.6 0.1 89
2019-12-07 00:00:00 16.1 15 Este 27 Este 0 1013.7 0.4 89
2019-12-06 23:00:00 16.1 12 Este 21 Este 0 1013.6 0.7 84
2019-12-06 22:00:00 15.8 10 Este 17 Este 0 1013.5 1.2 84
2019-12-06 21:00:00 15.7 10 Este 20 Este 0 1013.3 1.7 84
2019-12-06 20:00:00 15.8 12 Este 19 Este 0 1012.9 1.7 83
2019-12-06 19:00:00 15.7 9 Este 22 Este 0 1012.3 1.5 82
2019-12-06 18:00:00 16 10 Este 25 Nordeste 0 1011.6 0.9 81
2019-12-06 17:00:00 16.6 14 Nordeste 28 Nordeste 0 1011.2 0.1 79
2019-12-06 16:00:00 17 18 Nordeste 32 Nordeste 0 1010.8 -0.7 79
2019-12-06 15:00:00 17.5 19 Nordeste 28 Nordeste 0 1010.7 -1.2 80
2019-12-06 14:00:00 17.8 15 Nordeste 25 Nordeste 0 1011.1 -1.1 79
2019-12-06 13:00:00 18.1 12 Este 19 Este 0 1011.5 -0.4 72
2019-12-06 12:00:00 17.7 11 Nordeste 23 Este 0 1011.9 1 78
2019-12-06 11:00:00 17.5 14 Este 23 Nordeste 0 1012.2 1.8 83
2019-12-06 10:00:00 17.3 7 Este 17 Sudeste 0 1011.9 2.1 83
2019-12-06 09:00:00 16 13 Este 28 Nordeste 0 1010.9 1.8 89
2019-12-06 08:00:00 15.7 15 Nordeste 35 Nordeste 0 1010.4 1.2 90
2019-12-06 07:00:00 15.7 21 Nordeste 32 Nordeste 0 1009.8 0.9 90
2019-12-06 06:00:00 15.7 19 Nordeste 33 Este 0 1009.1 0.2 90
2019-12-06 05:00:00 15.6 14 Nordeste 27 Nordeste 0 1009.2 0.4 90
2019-12-06 04:00:00 15.6 14 Este 40 Nordeste 0 1008.9 0.2 90
2019-12-06 03:00:00 15.5 10 Este 24 Norte 0 1008.9 -0.4 89
2019-12-06 02:00:00 15.7 13 Nordeste 20 Nordeste 0 1008.8 -0.5 91
2019-12-06 01:00:00 15.6 13 Nordeste 19 Nordeste 0 1008.7 -0.5 91
2019-12-06 00:00:00 15.8 10 Este 21 Este 0 1009.3 0.4 88
2019-12-05 23:00:00 15.8 10 Este 20 Este 0 1009.3 0.9 86
2019-12-05 22:00:00 15.6 12 Este 26 Este 0 1009.2 1.4 82
2019-12-05 21:00:00 15.8 13 Este 23 Nordeste 0 1008.9 1.6 82
2019-12-05 20:00:00 15.7 14 Este 23 Este 0 1008.4 1.4 82
2019-12-05 19:00:00 15.7 15 Este 24 Este 0 1007.8 1.1 80
2019-12-05 18:00:00 15.7 14 Este 26 Este 0 1007.3 0.7 84
2019-12-05 17:00:00 16 15 Nordeste 24 Este 0 1007 0.4 80
2019-12-05 16:00:00 16.3 18 Este 27 Este 0 1006.7 -0.6 81
2019-12-05 15:00:00 16.5 19 Este 25 Este 0 1006.6 -1.4 80
2019-12-05 14:00:00 16.6 17 Este 22 Este 0 1006.6 -1.3 80
2019-12-05 13:00:00 16.5 14 Este 23 Nordeste 0 1007.3 0.1 84
2019-12-05 12:00:00 16.3 8 Nordeste 14 Este 0 1008 1.5 80
2019-12-05 11:00:00 15.6 5 Este 8 Este 0 1007.9 1.8 78
2019-12-05 10:00:00 14.1 3 Este 7 Sudeste 0 1007.2 1.6 84
2019-12-05 09:00:00 13.2 3 Sudeste 6 Sudeste 0 1006.5 1.4 86
2019-12-05 08:00:00 13 3 Sudoeste 6 Sudoeste 0 1006.1 1.1 89
2019-12-05 07:00:00 12.3 6 Sudoeste 8 Norte 0 1005.6 0.6 89
2019-12-05 06:00:00 12.4 5 Sudoeste 10 Norte 0 1005.1 0.5 85
2019-12-05 05:00:00 12.7 8 Sudoeste 12 Noroeste 0 1005 0.6 82
2019-12-05 04:00:00 13 5 Noroeste 8 Noroeste 0 1005 0.5 81
2019-12-05 03:00:00 13.6 5 Sudoeste 13 Oeste 0 1004.6 -0.2 78
2019-12-05 02:00:00 13.5 6 Oeste 12 Oeste 0 1004.4 0 75
2019-12-05 01:00:00 13.5 5 Sudoeste 9 Oeste 0 1004.5 0 75
2019-12-05 00:00:00 14.3 7 Oeste 14 Oeste 0 1004.8 0.4 70
2019-12-04 23:00:00 14 8 Oeste 12 Sudoeste 0 1004.4 0.2 70
2019-12-04 22:00:00 14.5 4 Noroeste 15 Sudoeste 0 1004.5 1.1 75
2019-12-04 21:00:00 14.7 10 Sudoeste 20 Sudoeste 0 1004.4 1 71
2019-12-04 20:00:00 14.5 13 Sudoeste 20 Sudoeste 0 1004.2 1.2 73
2019-12-04 19:00:00 14.2 9 Oeste 21 Oeste 0 1003.4 0.5 79
2019-12-04 18:00:00 14.4 15 Sudoeste 23 Oeste 0 1003.4 0.8 78
2019-12-04 17:00:00 15.1 12 Sudoeste 25 Sudoeste 0 1003 0.2 78
2019-12-04 16:00:00 15.1 16 Sudoeste 28 Oeste 0 1002.9 -0.2 81
2019-12-04 15:00:00 14.8 14 Sudoeste 31 Oeste 0.6 1002.6 -1 84
2019-12-04 14:00:00 14.4 17 Oeste 37 Oeste 3.6 1002.8 -1 89
2019-12-04 13:00:00 15.6 10 Oeste 31 Oeste 1.2 1003.1 -0.3 82
2019-12-04 12:00:00 17.3 16 Sudoeste 30 Sudoeste 0 1003.6 0.9 73
2019-12-04 11:00:00 16.7 14 Oeste 26 Oeste 0 1003.8 1.6 73
2019-12-04 10:00:00 15 13 Oeste 22 Oeste 0 1003.4 2.2 76
2019-12-04 09:00:00 14.3 10 Oeste 26 Sudoeste 0 1002.7 1.4 79
2019-12-04 08:00:00 14.3 12 Oeste 34 Oeste 0 1002.2 0.4 79
2019-12-04 07:00:00 14.1 18 Oeste 32 Sudoeste 0 1001.2 -1.3 81
2019-12-04 06:00:00 13.4 12 Oeste 28 Oeste 0 1001.3 -1.5 83
2019-12-04 05:00:00 14 13 Oeste 24 Oeste 0 1001.8 -1.6 71
2019-12-04 04:00:00 14.5 12 Oeste 27 Oeste 0 1002.5 -1.4 69
2019-12-04 03:00:00 14.3 15 Sudoeste 28 Oeste 0 1002.8 -1.4 72
2019-12-04 02:00:00 13.5 14 Sudoeste 23 Sudoeste 0 1003.4 -0.7 83
2019-12-04 01:00:00 13 10 Oeste 17 Oeste 0 1003.9 0.3 85
2019-12-04 00:00:00 13.2 5 Oeste 36 Norte 0.2 1004.2 1.3 85
2019-12-03 23:00:00 14.3 31 Norte 54 Norte 0 1004.1 2.4 75
2019-12-03 22:00:00 14 34 Norte 56 Norte 0 1003.6 2.9 79
2019-12-03 21:00:00 13.2 14 Nordeste 36 Nordeste 0.2 1002.9 2.4 88
2019-12-03 20:00:00 13.1 14 Norte 28 Nordeste 1.6 1001.7 1.6 89
2019-12-03 19:00:00 11.8 9 Oeste 33 Sudoeste 1.8 1000.7 0.7 94
2019-12-03 18:00:00 12 15 Oeste 31 Oeste 1 1000.5 0.8 91
2019-12-03 17:00:00 12.6 8 Oeste 24 Oeste 0.8 1000.1 0.3 92
2019-12-03 16:00:00 12.4 12 Oeste 33 Oeste 5.4 1000 -0.3 92
2019-12-03 15:00:00 -- 8 Oeste 30 Noroeste 0.4 999.7 -1 88
2019-12-03 14:00:00 -- -- -- 23 Noroeste 0.2 999.8 -0.9 82
2019-12-03 13:00:00 -- 5 Oeste 17 Oeste 0.4 1000.3 -0.5 94
2019-12-03 12:00:00 -- 8 Norte 44 Norte 1.6 1000.7 -0.2 97
2019-12-03 11:00:00 -- 30 Norte 47 Norte 2 1000.7 -0.1 97
2019-12-03 10:00:00 13.6 18 Norte 33 Norte 1.6 1000.8 0.6 94
2019-12-03 09:00:00 12.9 15 Oeste 35 Oeste 1.2 1000.9 0.8 92
2019-12-03 08:00:00 13.2 15 Oeste 28 Oeste 0 1000.8 0.4 88
2019-12-03 07:00:00 13.2 14 Oeste 30 Oeste 0 1000.2 -1.1 87
2019-12-03 06:00:00 13.1 14 Oeste 26 Sudoeste 0 1000.1 -1.7 89
2019-12-03 05:00:00 13 13 Oeste 22 Oeste 0 1000.4 -2.2 93
2019-12-03 04:00:00 13.2 7 Oeste 14 Oeste 0 1001.3 -2.1 93
2019-12-03 03:00:00 13.3 5 Sudoeste 13 Oeste 0 1001.8 -2.3 93
2019-12-03 02:00:00 12.8 10 Sudoeste 16 Oeste 1.2 1002.6 -2 94
2019-12-03 01:00:00 12.9 8 Sudoeste 12 Oeste 0.4 1003.4 -1.1 91
2019-12-03 00:00:00 13.1 4 Sudeste 13 Este 0 1004.1 -0.6 87
2019-12-02 23:00:00 12.5 2 Sudoeste 5 Noroeste 0 1004.6 0.1 91
2019-12-02 22:00:00 12.5 3 Noroeste 6 Noroeste 0.2 1004.5 0.9 89
2019-12-02 21:00:00 12.4 3 Sudeste 20 Sur 0.6 1004.7 1.9 87
2019-12-02 20:00:00 12.4 12 Sur 23 Sudeste 2.2 1004.5 2.1 89
2019-12-02 19:00:00 13 15 Sudeste 32 Sudeste 0.2 1003.6 1.6 86
2019-12-02 18:00:00 14.3 16 Sudeste 31 Sudeste 0 1002.8 0.7 80
2019-12-02 17:00:00 15.6 17 Sudeste 27 Sudeste 0 1002.4 -0.1 73
2019-12-02 16:00:00 15.9 14 Este 23 Este 0 1002 -0.7 75
2019-12-02 15:00:00 16.3 13 Este 19 Este 0 1002.1 -1.8 75
2019-12-02 14:00:00 16.8 12 Sudeste 19 Este 0 1002.5 -1.6 69
2019-12-02 13:00:00 16.1 12 Este 18 Este 0 1002.7 -0.8 80
2019-12-02 12:00:00 16.2 9 Sudeste 13 Sudeste 0 1003.9 0.6 82
2019-12-02 11:00:00 16.1 8 Sudeste 15 Sudeste 0 1004.1 0.8 83
2019-12-02 10:00:00 16.2 8 Sudeste 14 Sudeste 0 1003.5 0.3 85
2019-12-02 09:00:00 13.5 2 Norte 7 Sur 0.2 1003.3 0.2 93
2019-12-02 08:00:00 13.2 6 Sudeste 8 Sudeste 0 1003.3 0.1 92
2019-12-02 07:00:00 13.2 4 Oeste 11 Sudoeste 0 1003.2 -0.4 91
2019-12-02 06:00:00 13.5 4 Noroeste 10 Sudoeste 0 1003.1 -0.5 91
2019-12-02 05:00:00 13.9 7 Sudoeste 11 Oeste 0 1003.2 -1.1 90
2019-12-02 04:00:00 13.7 4 Oeste 13 Oeste 0 1003.6 -0.9 90
2019-12-02 03:00:00 13.2 4 Noroeste 10 Oeste 0 1003.6 -1.5 90
2019-12-02 02:00:00 13 4 Noroeste 10 Noroeste 0 1004.3 -1.3 90
2019-12-02 01:00:00 13.8 4 Sur 10 Sudoeste 0 1004.5 -1.2 88
2019-12-02 00:00:00 14 7 Noroeste 10 Noroeste 0.6 1005.1 -0.7 87
2019-12-01 23:00:00 14.8 3 Sudoeste 16 Sudoeste 0.4 1005.6 -0.5 80
2019-12-01 22:00:00 14.7 6 Noroeste 11 Norte 0 1005.7 -0.5 76
2019-12-01 21:00:00 15.1 5 Sudeste 17 Sur 0 1005.8 -0.4 73
2019-12-01 20:00:00 15.6 9 Sudoeste 22 Sudoeste 0 1006.1 -0.3 70
2019-12-01 19:00:00 15.4 15 Oeste 28 Oeste 0 1006.2 -0.4 73
2019-12-01 18:00:00 16 11 Oeste 28 Oeste 0 1006.2 -0.9 71
2019-12-01 17:00:00 15.8 17 Oeste 30 Oeste 0 1006.4 -1.1 80
2019-12-01 16:00:00 16.6 13 Oeste 32 Oeste 0 1006.6 -1.5 78
2019-12-01 15:00:00 17.2 9 Noroeste 32 Oeste 0 1007.1 -1.7 72
2019-12-01 14:00:00 19 13 Oeste 30 Oeste 0 1007.5 -1.7 62
2019-12-01 13:00:00 18.6 10 Noroeste 26 Norte 0 1008.1 -1.1 68
2019-12-01 12:00:00 19.2 12 Noroeste 21 Noroeste 0 1008.8 -0.1 61
2019-12-01 11:00:00 20 7 Oeste 30 Sudoeste 0 1009.2 0.4 56
2019-12-01 10:00:00 18.7 17 Sudoeste 28 Oeste 0 1009.2 0.2 59
2019-12-01 09:00:00 17.3 17 Oeste 31 Oeste 0 1008.9 -0.5 64
2019-12-01 08:00:00 16.6 18 Oeste 31 Sudoeste 0 1008.8 -0.8 66
2019-12-01 07:00:00 16.2 18 Sudoeste 31 Oeste 0 1009 -1.1 68
2019-12-01 06:00:00 16 19 Sudoeste 30 Oeste 0 1009.4 -1.4 70
2019-12-01 05:00:00 16 19 Oeste 32 Oeste 0 1009.6 -1.6 71
2019-12-01 04:00:00 15.8 17 Sudoeste 31 Sudoeste 0 1010.1 -1.7 73
2019-12-01 03:00:00 15.7 14 Sudoeste 31 Oeste 0 1010.8 -1.4 75
2019-12-01 02:00:00 15.9 21 Oeste 33 Oeste 0 1011.2 -1.3 79
2019-12-01 01:00:00 16.1 18 Oeste 32 Oeste 0 1011.8 -0.8 77
2019-12-01 00:00:00 16.6 18 Sudoeste 33 Oeste 0 1012.2 -0.5 71
2019-11-30 23:00:00 17.3 14 Sudoeste 22 Oeste 0 1012.5 -0.2 64
2019-11-30 22:00:00 17.1 13 Oeste 20 Oeste 0 1012.6 -0.1 60
2019-11-30 21:00:00 15.8 9 Oeste 20 Sudoeste 0 1012.7 0.2 72
2019-11-30 20:00:00 15.6 4 Oeste 14 Oeste 0 1012.7 0.1 79
2019-11-30 19:00:00 16.7 6 Noroeste 12 Noroeste 0 1012.7 -0.2 70
2019-11-30 18:00:00 17.5 3 Sudeste 8 Este 0 1012.5 -0.8 78
2019-11-30 17:00:00 18.4 5 Este 10 Este 0 1012.6 -1.3 75
2019-11-30 16:00:00 19.3 8 Este 12 Este 0 1012.9 -1.9 70
2019-11-30 15:00:00 19.8 4 Este 12 Este 0 1013.3 -2.4 63
2019-11-30 14:00:00 19.4 5 Este 12 Nordeste 0 1013.9 -2.2 64
2019-11-30 13:00:00 19.6 6 Este 13 Este 0 1014.8 -0.9 62
2019-11-30 12:00:00 19.9 5 Sudeste 10 Este 0 1015.7 0.6 60
2019-11-30 11:00:00 19 5 Este 8 Este 0 1016.1 1.2 61
2019-11-30 10:00:00 16.1 3 Nordeste 10 Noroeste 0 1015.7 1.3 71
2019-11-30 09:00:00 13.7 4 Noroeste 10 Noroeste 0 1015.1 0.7 77
2019-11-30 08:00:00 12.4 5 Oeste 9 Noroeste 0 1014.9 0.5 80
2019-11-30 07:00:00 12 4 Oeste 12 Sudoeste 0 1014.4 0.1 79
2019-11-30 06:00:00 12.5 5 Oeste 10 Sudoeste 0 1014.4 0 75
2019-11-30 05:00:00 14 8 Sudoeste 10 Sudoeste 0 1014.4 -0.2 68
2019-11-30 04:00:00 13.1 5 Oeste 9 Oeste 0 1014.3 -0.5 70
2019-11-30 03:00:00 13 4 Oeste 11 Sudoeste 0 1014.4 -0.6 70
2019-11-30 02:00:00 13.5 3 Oeste 9 Sudoeste 0 1014.6 -0.8 70
2019-11-30 01:00:00 13.5 7 Sudoeste 10 Sudoeste 0 1014.8 -0.7 71
2019-11-30 00:00:00 13.4 2 Oeste 9 Oeste 0 1015 -0.4 78
2019-11-29 23:00:00 13.9 4 Oeste 7 Sudoeste 0 1015.4 0.3 74
2019-11-29 22:00:00 14.3 3 Oeste 8 Sudoeste 0 1015.5 0.7 73
2019-11-29 21:00:00 14.8 7 Sudoeste 8 Sudoeste 0 1015.4 1.2 70
2019-11-29 20:00:00 16 3 Oeste 6 Sudoeste 0 1015.1 1 69
2019-11-29 19:00:00 17.2 3 Sudeste 12 Oeste 0 1014.8 1.1 71
2019-11-29 18:00:00 18.5 6 Sudoeste 14 Oeste 0 1014.2 0.3 60
2019-11-29 17:00:00 19.7 5 Oeste 16 Noroeste 0 1014.1 -0.4 55
2019-11-29 16:00:00 20.2 6 Noroeste 18 Noroeste 0 1013.7 -1.2 53
2019-11-29 15:00:00 20.8 6 Noroeste 16 Noroeste 0 1013.9 -1.7 51
2019-11-29 14:00:00 20.8 5 Oeste 16 Noroeste 0 1014.5 -1 52
2019-11-29 13:00:00 20.1 8 Noroeste 16 Noroeste 0 1014.9 -0.1 57
2019-11-29 12:00:00 19.8 8 Noroeste 16 Oeste 0 1015.6 1 58
2019-11-29 11:00:00 19.4 5 Noroeste 11 Noroeste 0 1015.5 1.5 59
2019-11-29 10:00:00 16.7 3 Norte 5 Norte 0 1015 1.3 70
2019-11-29 09:00:00 15.2 2 Sudeste 8 Sudeste 0 1014.6 1.3 78
2019-11-29 08:00:00 13.7 5 Sudoeste 13 Sudoeste 0 1014 0.7 77
2019-11-29 07:00:00 15.5 6 Sudoeste 12 Sudoeste 0 1013.7 0.4 69
2019-11-29 06:00:00 16 9 Sudoeste 18 Sudoeste 0 1013.3 0.2 70
2019-11-29 05:00:00 16.4 12 Oeste 21 Sudoeste 0 1013.3 0.2 68
2019-11-29 04:00:00 16.5 13 Sudoeste 22 Sudoeste 0 1013.3 -0.1 69
2019-11-29 03:00:00 16.8 16 Sudoeste 27 Sudoeste 0 1013.1 -0.3 68
2019-11-29 02:00:00 16.7 17 Sudoeste 25 Sudoeste 0 1013.1 -0.3 69
2019-11-29 01:00:00 16.9 13 Sudoeste 21 Sudoeste 0 1013.4 0.4 68
2019-11-29 00:00:00 16.9 10 Oeste 17 Sudoeste 0 1013.4 0.5 67
2019-11-28 23:00:00 17.1 11 Sudoeste 19 Oeste 0 1013.4 0.7 67
2019-11-28 22:00:00 17.4 14 Oeste 22 Oeste 0 1013 0.8 64
2019-11-28 21:00:00 17.2 12 Sudoeste 19 Sudoeste 0 1012.9 0.9 63
2019-11-28 20:00:00 17.3 13 Sudoeste 19 Sudoeste 0 1012.7 0.8 60
2019-11-28 19:00:00 17.4 10 Sudoeste 18 Sudoeste 0 1012.2 0.5 59
2019-11-28 18:00:00 18 10 Oeste 21 Oeste 0 1012 0 58
2019-11-28 17:00:00 19.5 6 Oeste 19 Noroeste 0 1011.9 -0.9 53
2019-11-28 16:00:00 19.6 9 Noroeste 23 Oeste 0 1011.7 -1.5 52
2019-11-28 15:00:00 20.1 5 Noroeste 23 Oeste 0 1012 -2.1 52
2019-11-28 14:00:00 19.9 9 Noroeste 21 Oeste 0 1012.8 -1.3 54
2019-11-28 13:00:00 20.6 6 Oeste 24 Oeste 0 1013.2 -0.4 56
2019-11-28 12:00:00 20.4 8 Oeste 20 Noroeste 0 1014.1 1 56
2019-11-28 11:00:00 19.3 13 Oeste 22 Sudoeste 0 1014.1 1.9 63
2019-11-28 10:00:00 17.5 8 Oeste 18 Sudoeste 0 1013.6 2 77
2019-11-28 09:00:00 16.4 4 Noroeste 7 Noroeste 0 1013.1 1.8 75
2019-11-28 08:00:00 16 2 Sudeste 17 Sudoeste 0 1012.2 1 76
2019-11-28 07:00:00 16.4 11 Sudoeste 18 Oeste 0 1011.6 0 76
2019-11-28 06:00:00 16.6 4 Sudoeste 15 Oeste 0 1011.3 -0.1 76
2019-11-28 05:00:00 17.3 10 Sudoeste 21 Sudoeste 0 1011.2 0 73
2019-11-28 04:00:00 17.4 8 Oeste 23 Oeste 0 1011.6 -0.1 75
2019-11-28 03:00:00 17.6 12 Oeste 21 Oeste 0 1011.4 -0.1 75
2019-11-28 02:00:00 17.7 10 Oeste 22 Oeste 0 1011.2 0 77
2019-11-28 01:00:00 17.7 10 Oeste 22 Oeste 0 1011.7 0.7 77
2019-11-28 00:00:00 17.4 12 Oeste 22 Oeste 0 1011.5 0.8 77
2019-11-27 23:00:00 17.3 12 Oeste 26 Sudoeste 0 1011.2 0.8 78
2019-11-27 22:00:00 17.7 14 Sudoeste 31 Sudoeste 0 1011 1.1 76
2019-11-27 21:00:00 17.5 15 Sudoeste 30 Sudoeste 0 1010.7 1.3 81
2019-11-27 20:00:00 17.2 16 Oeste 37 Oeste 0 1010.4 1.1 83
2019-11-27 19:00:00 17.6 21 Oeste 32 Oeste 0 1009.9 0.8 80
2019-11-27 18:00:00 18 18 Oeste 36 Oeste 0 1009.4 0.3 78
2019-11-27 17:00:00 18.4 19 Oeste 35 Noroeste 0 1009.3 -0.4 75
2019-11-27 16:00:00 20 18 Oeste 33 Oeste 0 1009.1 -1.4 67
2019-11-27 15:00:00 20.6 15 Oeste 34 Oeste 0 1009.1 -1.7 65
2019-11-27 14:00:00 20.5 12 Oeste 30 Oeste 0 1009.7 -1.2 65
2019-11-27 06:00:00 16.6 10 Sudoeste 18 Sudoeste 0 1008.7 -0.4 80
2019-11-27 05:00:00 16.8 12 Oeste 20 Sudoeste 0 1008.7 -0.4 80
2019-11-27 04:00:00 16.7 12 Sudoeste 22 Oeste 0 1009 -0.4 82
2019-11-27 03:00:00 17.1 13 Sudoeste 22 Oeste 0 1009.1 -0.4 80
2019-11-27 02:00:00 17.2 14 Oeste 25 Sudoeste 0 1009.1 -0.6 81
2019-11-27 01:00:00 17.3 14 Oeste 25 Oeste 0 1009.4 -0.3 81
2019-11-27 00:00:00 17.4 15 Sudoeste 30 Sudoeste 0 1009.5 -0.1 81
2019-11-26 23:00:00 17.7 17 Oeste 33 Oeste 0 1009.7 0.2 81
2019-11-26 22:00:00 17.8 20 Oeste 35 Oeste 0 1009.7 0.8 80
2019-11-26 21:00:00 17.9 21 Oeste 33 Oeste 0 1009.6 1.2 81
2019-11-26 20:00:00 18.1 18 Sudoeste 31 Oeste 0 1009.5 1.2 80
2019-11-26 19:00:00 18.6 17 Oeste 33 Oeste 0 1008.9 0.4 76
2019-11-26 18:00:00 19.1 18 Oeste 35 Oeste 0 1008.4 -0.2 76
2019-11-26 17:00:00 20.4 10 Oeste 22 Oeste 0 1008.3 -0.7 70
2019-11-26 16:00:00 21.2 13 Oeste 23 Oeste 0 1008.5 -1.3 67
2019-11-26 15:00:00 21.6 8 Noroeste 25 Sudoeste 0 1008.6 -2.3 63
2019-11-26 14:00:00 22.6 13 Oeste 30 Oeste 0 1009 -2.2 61
2019-11-26 13:00:00 22 11 Oeste 32 Oeste 0 1009.8 -1.1 62
2019-11-26 12:00:00 21.5 13 Oeste 30 Oeste 0 1010.9 0.3 64
2019-11-26 11:00:00 20.8 7 Oeste 23 Oeste 0 1011.2 0.7 67
2019-11-26 10:00:00 20.8 7 Oeste 19 Sudoeste 0 1010.9 0.7 65
2019-11-26 09:00:00 19 7 Oeste 21 Sudoeste 0 1010.6 0.3 72
2019-11-26 08:00:00 17.9 9 Oeste 21 Oeste 0 1010.5 0.1 75
2019-11-26 07:00:00 18.1 9 Oeste 25 Oeste 0 1010.2 -0.3 73
2019-11-26 06:00:00 18.2 13 Oeste 32 Oeste 0 1010.3 -0.6 71
2019-11-26 05:00:00 17.8 9 Oeste 26 Sudoeste 0 1010.4 -0.7 72
2019-11-26 04:00:00 17.2 13 Oeste 22 Oeste 0 1010.5 -0.9 69
2019-11-26 03:00:00 16.9 10 Oeste 19 Oeste 0 1010.9 -0.8 69
2019-11-26 02:00:00 17.1 9 Oeste 21 Oeste 0 1011.1 -1 68
2019-11-26 01:00:00 17.6 6 Oeste 21 Oeste 0 1011.4 -0.6 65
2019-11-26 00:00:00 17.7 13 Oeste 22 Sudoeste 0 1011.7 -0.1 66
2019-11-25 23:00:00 17.7 14 Oeste 24 Oeste 0 1012.1 0.4 65
2019-11-25 22:00:00 17.5 15 Oeste 37 Oeste 0 1012 0.5 69
2019-11-25 21:00:00 17 17 Oeste 31 Oeste 0 1011.8 0.8 74
2019-11-25 20:00:00 16.9 18 Oeste 37 Oeste 0 1011.7 0.9 76
2019-11-25 19:00:00 17.1 17 Oeste 33 Oeste 0 1011.5 0.6 74
2019-11-25 18:00:00 17.9 18 Oeste 36 Oeste 0 1011 -0.1 68
2019-11-25 17:00:00 19.3 18 Oeste 32 Oeste 0 1010.8 -0.7 60
2019-11-25 16:00:00 20.2 18 Oeste 39 Oeste 0 1010.9 -1.2 58
2019-11-25 15:00:00 20.2 16 Oeste 38 Oeste 0 1011.1 -1.7 58
2019-11-25 14:00:00 20.6 18 Oeste 46 Oeste 0 1011.5 -1.6 56
2019-11-25 13:00:00 20.7 23 Oeste 37 Oeste 0 1012.1 -0.9 55
2019-11-25 12:00:00 19.7 23 Oeste 39 Sudoeste 0 1012.8 0.2 55
2019-11-25 11:00:00 18.8 22 Oeste 36 Oeste 0 1013.1 1.2 57
2019-11-25 10:00:00 17.2 15 Oeste 30 Sudoeste 0 1013 1.4 63
2019-11-25 09:00:00 16 18 Oeste 37 Oeste 0 1012.6 1.5 69
2019-11-25 08:00:00 14.7 18 Oeste 39 Oeste 0 1011.9 1 71
2019-11-25 07:00:00 14.6 17 Oeste 31 Oeste 0 1011.6 0.6 71
2019-11-25 06:00:00 14.8 16 Oeste 32 Oeste 0 1011.1 -0.4 69
2019-11-25 05:00:00 14.8 14 Sudoeste 30 Sudoeste 0 1010.9 -0.8 69
2019-11-25 04:00:00 14.6 15 Sudoeste 27 Oeste 0 1011 -0.9 71
2019-11-25 03:00:00 14.4 12 Sudoeste 24 Sudoeste 0 1011.5 -0.3 74
2019-11-25 02:00:00 14.3 5 Oeste 29 Oeste 0 1011.7 -0.2 75
2019-11-25 01:00:00 14.5 12 Oeste 25 Oeste 0 1011.9 -0.1 74
2019-11-25 00:00:00 14.7 16 Oeste 31 Oeste 0 1011.8 0.1 74
2019-11-24 23:00:00 14.9 13 Oeste 34 Oeste 0 1011.9 1 76
2019-11-24 22:00:00 14.9 11 Oeste 34 Oeste 0 1012 1.3 77
2019-11-24 21:00:00 15 16 Oeste 35 Oeste 0 1011.7 1 75
2019-11-24 20:00:00 15.2 16 Oeste 38 Oeste 0 1010.9 0.5 74
2019-11-24 19:00:00 15.2 15 Oeste 31 Oeste 0 1010.7 0.6 74
2019-11-24 18:00:00 15.7 12 Oeste 35 Oeste 0 1010.7 0.5 69
2019-11-24 17:00:00 16.6 17 Oeste 43 Oeste 0 1010.4 -0.2 58
2019-11-24 16:00:00 17.3 17 Oeste 43 Oeste 0 1010.1 -0.7 55
2019-11-24 15:00:00 17.7 18 Oeste 50 Oeste 0 1010.2 -1.3 53
2019-11-24 14:00:00 17.4 14 Oeste 50 Oeste 0 1010.6 -1 53
2019-11-24 13:00:00 17.6 15 Oeste 46 Oeste 0 1010.8 -0.6 58
2019-11-24 12:00:00 17.3 19 Oeste 51 Oeste 0 1011.5 0.9 58
2019-11-24 11:00:00 17 15 Oeste 40 Oeste 0 1011.6 2.2 65
2019-11-24 10:00:00 16.2 14 Oeste 37 Sudoeste 0 1011.4 2.9 68
2019-11-24 09:00:00 15.1 18 Oeste 46 Oeste 0 1010.6 3 72
2019-11-24 08:00:00 14.7 19 Oeste 43 Oeste 0 1009.4 1.4 73
2019-11-24 07:00:00 14.7 14 Oeste 47 Oeste 0 1008.5 0 79
2019-11-24 06:00:00 14.9 24 Oeste 55 Oeste 0 1007.6 -0.8 75
2019-11-24 05:00:00 14.9 24 Oeste 45 Oeste 0 1008 -0.2 75
2019-11-24 04:00:00 15 26 Oeste 45 Oeste 0 1008.5 -0.1 71
2019-11-24 03:00:00 14.9 15 Oeste 44 Oeste 0 1008.4 -0.1 72
2019-11-24 02:00:00 15 18 Oeste 40 Oeste 0 1008.2 -0.1 71
2019-11-24 01:00:00 15.1 16 Oeste 40 Oeste 0 1008.6 0.3 69
2019-11-24 00:00:00 15.1 14 Oeste 34 Oeste 0 1008.5 1.2 70
2019-11-23 23:00:00 15.1 12 Oeste 35 Oeste 0 1008.3 2.7 71
2019-11-23 22:00:00 15.2 9 Oeste 35 Oeste 0 1008.3 3.2 69
2019-11-23 21:00:00 15.2 10 Oeste 38 Noroeste 0 1007.3 3.1 67
2019-11-23 20:00:00 15.3 14 Oeste 36 Oeste 0 1005.6 2.6 66
2019-11-23 19:00:00 15.5 11 Oeste 39 Oeste 0 1005.1 2.8 66
2019-11-23 18:00:00 15.9 20 Oeste 45 Oeste 0 1004.2 2.6 68
2019-11-23 17:00:00 16.1 20 Oeste 44 Oeste 0 1003 1.2 70
2019-11-23 16:00:00 16.2 14 Oeste 52 Oeste 0 1002.3 0.2 70
2019-11-23 15:00:00 16.9 18 Oeste 53 Oeste 0 1001.6 -0.3 69
2019-11-23 14:00:00 17.3 27 Oeste 60 Oeste 0 1001.8 0 69
2019-11-23 13:00:00 16.8 28 Oeste 60 Oeste 0 1002.1 1.4 67
2019-11-23 12:00:00 16.4 22 Oeste 55 Sudoeste 0 1001.9 2.3 67
2019-11-23 11:00:00 16.3 18 Oeste 49 Oeste 0 1001.8 3 70
2019-11-23 10:00:00 17.7 15 Oeste 51 Oeste 0 1000.7 2.5 67
2019-11-23 09:00:00 17 18 Oeste 42 Oeste 0 999.6 2.2 73
2019-11-23 08:00:00 16.3 14 Oeste 48 Oeste 0 998.8 0.9 80
2019-11-23 07:00:00 16.4 24 Oeste 50 Oeste 0 998.2 0.5 78
2019-11-23 06:00:00 15.9 24 Oeste 43 Oeste 0.2 997.4 -0.2 82
2019-11-23 05:00:00 15.3 22 Oeste 42 Oeste 1.2 997.9 0 89
2019-11-23 04:00:00 15.8 22 Oeste 38 Oeste 1.6 997.7 -0.1 89
2019-11-23 03:00:00 15.7 23 Oeste 41 Sudoeste 0.8 997.6 1.7 92
2019-11-23 02:00:00 15.5 21 Oeste 45 Oeste 3.6 997.9 1.9 91
2019-11-23 01:00:00 17.6 12 Oeste 33 Noroeste 1.4 997.8 1.7 86
2019-11-23 00:00:00 20.7 12 Sudoeste 30 Sudoeste 0 995.9 -0.5 59
2019-11-22 23:00:00 21.7 19 Sudoeste 39 Sudoeste 0 996 -0.4 54
2019-11-22 22:00:00 20.9 13 Sudoeste 23 Sudoeste 0 996.1 -0.5 57
2019-11-22 21:00:00 21.5 12 Sudoeste 33 Sudoeste 0 996.4 -0.1 55
2019-11-22 20:00:00 21 13 Sudoeste 24 Oeste 0 996.4 -0.2 57
2019-11-22 19:00:00 19.7 6 Sudoeste 18 Sudoeste 0 996.6 0.4 61
2019-11-22 18:00:00 20.4 6 Sudoeste 20 Sudoeste 0 996.5 -0.2 61
2019-11-22 17:00:00 21.9 11 Sudoeste 41 Sur 0 996.6 -1.3 54
2019-11-22 16:00:00 21.7 22 Sur 36 Sudoeste 0 996.2 -3.3 53
2019-11-22 15:00:00 21.3 28 Sudoeste 54 Sudoeste 0 996.7 -4.2 55
2019-11-22 14:00:00 20.6 16 Sur 45 Sur 0 997.9 -3.6 58
2019-11-22 13:00:00 18.9 6 Sur 44 Sudoeste 0.4 999.5 -1.6 64
2019-11-22 12:00:00 18.9 17 Sudoeste 33 Sudoeste 0 1000.9 -0.5 60
2019-11-22 11:00:00 18.2 5 Sudeste 21 Sudoeste 0 1001.5 0.5 64
2019-11-22 10:00:00 18.1 13 Sudoeste 22 Sudoeste 0 1001.1 -0.3 57
2019-11-22 09:00:00 15.7 5 Nordeste 10 Nordeste 0 1001.4 -0.2 70
2019-11-22 08:00:00 15.3 4 Norte 12 Sudoeste 0 1001 -0.9 68
2019-11-22 07:00:00 15.1 3 Noroeste 13 Oeste 0 1001.4 -1 69
2019-11-22 06:00:00 15.2 5 Norte 12 Sudeste 0 1001.6 -1 67
2019-11-22 05:00:00 14.4 5 Sur 11 Sudoeste 0 1001.9 -1 73
2019-11-22 04:00:00 13.5 5 Sudoeste 10 Oeste 0 1002.4 -1.1 81
2019-11-22 03:00:00 13.5 2 Este 8 Noroeste 0 1002.6 -1.5 79
2019-11-22 02:00:00 13.4 0 Calma 14 Sudoeste 0 1002.9 -1.4 82
2019-11-22 01:00:00 13.6 5 Oeste 12 Oeste 0 1003.5 -0.9 82
2019-11-22 00:00:00 14.2 5 Oeste 13 Sudoeste 0 1004.1 -0.9 80
2019-11-21 23:00:00 15 5 Norte 11 Oeste 0 1004.3 0.2 79
2019-11-21 22:00:00 15.7 8 Oeste 22 Sudoeste 0.4 1004.4 0.8 74
2019-11-21 21:00:00 16.7 14 Oeste 24 Sudoeste 0 1005 1.4 70
2019-11-21 20:00:00 16.5 4 Noroeste 9 Oeste 0 1004.1 0.6 67
2019-11-21 19:00:00 16.4 7 Oeste 12 Nordeste 0 1003.6 0.1 67
2019-11-21 18:00:00 17.7 5 Nordeste 8 Nordeste 0 1003.6 -0.2 57
2019-11-21 17:00:00 19.5 3 Este 8 Este 0 1003.5 -1 55
2019-11-21 16:00:00 19.3 5 Nordeste 11 Nordeste 0 1003.5 -1.4 57
2019-11-21 15:00:00 19.4 5 Este 9 Este 0 1003.8 -2.1 55
2019-11-21 14:00:00 19 6 Norte 9 Norte 0 1004.5 -1.8 55
2019-11-21 13:00:00 18.4 3 Nordeste 10 Este 0 1004.9 -1.2 59
2019-11-21 12:00:00 17 4 Sudeste 12 Sudeste 0.2 1005.9 -0.1 68
2019-11-21 11:00:00 15.9 4 Este 9 Noroeste 0 1006.3 0.5 70
2019-11-21 10:00:00 14.7 3 Oeste 6 Sudoeste 0 1006.1 0.7 70
2019-11-21 09:00:00 13.4 3 Sudoeste 8 Sudoeste 0 1006 0.5 75
2019-11-21 08:00:00 12.7 3 Sudoeste 9 Oeste 0 1005.8 0.2 76
2019-11-21 07:00:00 12.7 5 Noroeste 7 Noroeste 0 1005.4 -0.6 75
2019-11-21 06:00:00 13.6 4 Sudoeste 12 Oeste 0 1005.5 -0.4 70
2019-11-21 05:00:00 14.8 10 Oeste 14 Oeste 0 1005.6 -0.2 62
2019-11-21 04:00:00 14.5 9 Oeste 14 Oeste 0 1006 0.1 61
2019-11-21 03:00:00 14.3 9 Oeste 14 Oeste 0 1005.9 -0.1 62
2019-11-21 02:00:00 13.3 5 Oeste 11 Oeste 0 1005.8 -0.1 69
2019-11-21 01:00:00 12.6 4 Noroeste 8 Sudoeste 0 1005.9 -0.2 75
2019-11-21 00:00:00 13 4 Oeste 6 Oeste 0 1006 -0.1 76
2019-11-20 23:00:00 13.6 4 Oeste 6 Sudoeste 0 1005.9 0.2 74
2019-11-20 22:00:00 14 3 Sudeste 10 Sur 0 1006.1 0.4 72
2019-11-20 21:00:00 14.3 2 Sur 21 Sur 0 1006.1 0.7 66
2019-11-20 20:00:00 14.4 2 Sudeste 13 Oeste 0 1005.7 0.1 64
2019-11-20 19:00:00 15 9 Oeste 14 Oeste 0 1005.7 0.5 61
2019-11-20 18:00:00 15.7 5 Oeste 9 Oeste 0 1005.4 0.1 61
2019-11-20 17:00:00 16.5 4 Norte 13 Norte 0 1005.6 -0.1 51
2019-11-20 16:00:00 17.2 9 Norte 12 Nordeste 0 1005.2 -1.4 45
2019-11-20 15:00:00 17.8 5 Sudeste 13 Sudeste 0 1005.3 -2.1 48
2019-11-20 14:00:00 18.1 8 Sudeste 14 Este 0 1005.7 -2.1 44
2019-11-20 13:00:00 17.8 9 Este 15 Este 0 1006.6 -1.3 48
2019-11-20 12:00:00 16.5 5 Sudeste 9 Este 0 1007.4 -0.1 54
2019-11-20 11:00:00 15.2 5 Sudeste 8 Sudeste 0 1007.8 0.3 61
2019-11-20 10:00:00 13.2 2 Sudeste 5 Sudoeste 0 1007.9 0.6 72
2019-11-20 09:00:00 10.8 2 Oeste 6 Oeste 0 1007.5 0.1 71
2019-11-20 08:00:00 9.6 2 Noroeste 8 Oeste 0 1007.5 -0.2 75
2019-11-20 07:00:00 9.4 5 Noroeste 8 Noroeste 0 1007.3 -0.5 77
2019-11-20 06:00:00 10 6 Sudoeste 10 Sudoeste 0 1007.4 -0.8 70
2019-11-20 05:00:00 10.4 4 Oeste 9 Noroeste 0 1007.7 -0.8 69
2019-11-20 04:00:00 10.4 5 Oeste 13 Sudoeste 0 1007.8 -1.3 68
2019-11-20 03:00:00 11.2 8 Sudoeste 12 Oeste 0 1008.2 -1.3 65
2019-11-20 02:00:00 10.8 5 Oeste 11 Sudoeste 0 1008.5 -1.3 69
2019-11-20 01:00:00 10.7 3 Oeste 7 Oeste 0 1009.1 -0.9 66
2019-11-20 00:00:00 11.1 4 Oeste 7 Oeste 0 1009.5 -0.3 70
2019-11-19 23:00:00 11.7 6 Sudoeste 11 Sudoeste 0 1009.8 -0.2 72
2019-11-19 22:00:00 12.1 4 Sudoeste 8 Sudoeste 0 1010 0.2 67
2019-11-19 21:00:00 12.7 4 Oeste 10 Oeste 0 1009.8 0 66
2019-11-19 20:00:00 13.3 6 Oeste 9 Sudoeste 0 1010 0 74
2019-11-19 19:00:00 13.9 5 Oeste 9 Oeste 0 1009.8 -0.2 75
2019-11-19 18:00:00 14.5 3 Noroeste 13 Sudoeste 0 1009.8 -0.2 70
2019-11-19 17:00:00 15.2 5 Noroeste 15 Noroeste 0 1010 -0.9 68
2019-11-19 16:00:00 16.1 7 Noroeste 21 Noroeste 0 1010 -1.6 63
2019-11-19 15:00:00 16.2 6 Noroeste 24 Oeste 0 1010 -2.3 59
2019-11-19 14:00:00 17.1 13 Oeste 24 Sudoeste 0 1010.9 -1.8 56
2019-11-19 13:00:00 16.5 9 Oeste 27 Oeste 0 1011.6 -0.9 56
2019-11-19 12:00:00 17.1 10 Oeste 27 Oeste 0 1012.3 -0.1 54
2019-11-19 11:00:00 16 14 Sudoeste 24 Sudoeste 0 1012.7 0.6 57
2019-11-19 10:00:00 14.4 12 Sudoeste 19 Oeste 0 1012.5 0.7 61
2019-11-19 09:00:00 11.7 9 Sudoeste 16 Sudoeste 0 1012.4 1 70
2019-11-19 08:00:00 10.3 3 Norte 10 Norte 0 1012.1 0.8 75
2019-11-19 07:00:00 11.3 4 Norte 10 Sudoeste 0 1011.8 0.3 71
2019-11-19 06:00:00 12.4 5 Sur 21 Sudoeste 0 1011.4 0 67
2019-11-19 05:00:00 12.9 8 Sudoeste 17 Sudoeste 0 1011.3 0 68
2019-11-19 04:00:00 13 6 Sur 26 Sudoeste 0 1011.5 0 70
2019-11-19 03:00:00 13.2 13 Sudoeste 23 Oeste 0 1011.4 0 73
2019-11-19 02:00:00 13.5 12 Oeste 24 Oeste 0 1011.3 0.1 74
2019-11-19 01:00:00 13.6 12 Oeste 32 Oeste 0 1011.5 0.5 74
2019-11-19 00:00:00 13.7 14 Oeste 31 Oeste 0 1011.4 0.7 74
2019-11-18 23:00:00 13.7 13 Oeste 28 Oeste 0 1011.2 1.2 72
2019-11-18 22:00:00 13.8 7 Oeste 23 Noroeste 0 1011 1.7 72
2019-11-18 21:00:00 13.9 7 Oeste 28 Oeste 0 1010.7 2 70
2019-11-18 20:00:00 13.5 12 Oeste 31 Oeste 0 1010 2.3 74
2019-11-18 19:00:00 13.8 15 Oeste 32 Oeste 0 1009.3 2.2 73
2019-11-18 18:00:00 14.2 13 Oeste 36 Oeste 0 1008.7 2.1 67
2019-11-18 17:00:00 15.1 13 Oeste 52 Oeste 0 1007.7 0.9 60
2019-11-18 16:00:00 15.5 15 Oeste 50 Oeste 0 1007.1 0.3 62
2019-11-18 15:00:00 15.8 17 Oeste 53 Oeste 0 1006.6 -0.5 60
2019-11-18 14:00:00 15.8 17 Oeste 54 Oeste 0 1006.8 -0.8 63
2019-11-18 13:00:00 15.9 20 Oeste 46 Oeste 0 1006.8 -0.6 65
2019-11-18 12:00:00 14 25 Oeste 47 Oeste 0 1007.1 1.2 72
2019-11-18 11:00:00 12.3 26 Oeste 46 Oeste 4.2 1007.6 2.5 82
2019-11-18 10:00:00 12.3 21 Sudoeste 48 Oeste 4.4 1007.4 2.1 84
2019-11-18 09:00:00 15.8 10 Oeste 28 Sudoeste 0 1005.9 0.6 63
2019-11-18 08:00:00 15.6 12 Sudoeste 29 Sudoeste 0 1005.1 -0.6 63
2019-11-18 07:00:00 16.6 14 Sudoeste 28 Oeste 0 1005.3 -1 56
2019-11-18 06:00:00 17 13 Sudoeste 28 Sudoeste 0 1005.3 -1.7 49
2019-11-18 05:00:00 17.1 11 Sudoeste 32 Sudoeste 0 1005.7 -1.6 48
2019-11-18 04:00:00 16.8 15 Sudoeste 26 Sudoeste 0 1006.3 -1.9 49
2019-11-18 03:00:00 16.3 12 Sudoeste 20 Sudoeste 0 1007 -1.9 51
2019-11-18 02:00:00 16.1 13 Sudoeste 22 Sudoeste 0 1007.3 -1.9 54
2019-11-18 01:00:00 14.1 6 Sudoeste 12 Sudoeste 0 1008.2 -2 59
2019-11-18 00:00:00 14.4 6 Sudoeste 13 Sudoeste 0 1008.9 -1.7 56
2019-11-17 23:00:00 15 4 Oeste 14 Sudoeste 0 1009.2 -1.8 56
2019-11-17 22:00:00 15.9 8 Sudoeste 16 Sudoeste 0 1010.2 -0.9 50
2019-11-17 21:00:00 16.5 12 Sudoeste 22 Sudoeste 0 1010.6 -0.6 51
2019-11-17 20:00:00 16.4 10 Oeste 24 Oeste 0 1011 -0.1 46
2019-11-17 19:00:00 15.7 10 Sudoeste 18 Oeste 0 1011.1 -0.4 42
2019-11-17 18:00:00 15.7 6 Oeste 15 Oeste 0 1011.2 -0.8 41
2019-11-17 17:00:00 16.9 6 Oeste 19 Oeste 0 1011.1 -1.6 41
2019-11-17 16:00:00 17.2 9 Oeste 24 Noroeste 0 1011.5 -1.7 36
2019-11-17 15:00:00 17.7 8 Noroeste 21 Noroeste 0 1012 -2 30
2019-11-17 14:00:00 18 8 Oeste 30 Oeste 0 1012.7 -1.7 39
2019-11-17 13:00:00 18.1 13 Oeste 35 Oeste 0 1013.2 -0.9 38
2019-11-17 12:00:00 17.3 13 Oeste 25 Oeste 0 1014 0.3 44
2019-11-17 11:00:00 16.4 10 Oeste 27 Oeste 0 1014.4 1.1 48
2019-11-17 10:00:00 15.1 14 Sudoeste 28 Oeste 0 1014.1 1.1 51
2019-11-17 09:00:00 13.3 10 Oeste 28 Sudoeste 0 1013.7 1 54
2019-11-17 08:00:00 12.3 16 Oeste 26 Oeste 0 1013.3 0.9 58
2019-11-17 07:00:00 11.8 14 Sudoeste 25 Oeste 0 1013 0.4 62
2019-11-17 06:00:00 12.1 13 Oeste 28 Oeste 0 1012.7 0.4 61
2019-11-17 05:00:00 12.5 12 Oeste 31 Oeste 0 1012.4 -0.1 61
2019-11-17 04:00:00 12.9 11 Oeste 32 Oeste 0 1012.6 -0.1 63
2019-11-17 03:00:00 12.9 12 Oeste 34 Oeste 0 1012.3 -0.7 64
2019-11-17 02:00:00 12.6 12 Oeste 32 Noroeste 0 1012.5 -0.3 66
2019-11-17 01:00:00 12.7 10 Oeste 35 Oeste 0 1012.7 0.1 66
2019-11-17 00:00:00 12.8 9 Oeste 35 Oeste 0 1013 1.1 63
2019-11-16 23:00:00 13 12 Oeste 36 Noroeste 0 1012.8 1.6 64
2019-11-16 22:00:00 13.2 9 Oeste 29 Oeste 0 1012.6 1.8 63
2019-11-16 21:00:00 13.3 10 Oeste 32 Oeste 0 1011.9 1.9 62
2019-11-16 20:00:00 13.4 9 Noroeste 31 Noroeste 0 1011.2 1.5 59
2019-11-16 19:00:00 13.3 10 Oeste 41 Oeste 0 1010.8 1.5 57
2019-11-16 18:00:00 13.4 15 Oeste 42 Oeste 0 1010 1 56
2019-11-16 17:00:00 14.4 15 Oeste 39 Oeste 0 1009.7 0.7 48
2019-11-16 16:00:00 14.4 17 Oeste 47 Oeste 0 1009.3 0.2 48
2019-11-16 15:00:00 14.8 18 Oeste 45 Sudoeste 0 1009 -0.5 48
2019-11-16 14:00:00 14.7 21 Oeste 44 Oeste 0 1009 0.2 51
2019-11-16 13:00:00 14.7 14 Oeste 45 Oeste 0 1009.1 1 52
2019-11-16 12:00:00 14 13 Oeste 49 Oeste 0 1009.5 2.1 50
2019-11-16 11:00:00 14.1 13 Oeste 50 Oeste 0 1008.8 2.3 53
2019-11-16 10:00:00 13 12 Oeste 34 Noroeste 0 1008.1 2.7 58
2019-11-16 09:00:00 12.3 10 Oeste 31 Oeste 0 1007.4 3 56
2019-11-16 08:00:00 11.5 10 Oeste 33 Noroeste 0 1006.5 1.9 61
2019-11-16 07:00:00 11.5 10 Oeste 36 Oeste 0 1005.4 1.2 62
2019-11-16 06:00:00 10.5 9 Oeste 30 Oeste 0.6 1004.4 1 66
2019-11-16 05:00:00 7 16 Sur 23 Sur 17.4 1004.6 1.2 83
2019-11-16 04:00:00 9.4 12 Oeste 41 Sudoeste 10.6 1004.2 1.3 72
2019-11-16 03:00:00 10 18 Oeste 41 Oeste 1 1003.4 0.3 72
2019-11-16 02:00:00 10 22 Sudoeste 42 Oeste 1.6 1003.4 0.4 75
2019-11-16 01:00:00 11.2 16 Oeste 38 Oeste 0 1002.9 0.1 70
2019-11-16 00:00:00 12.4 18 Oeste 57 Oeste 0 1003.1 1 64